createdAt,value
2022-08-17T00:00:43.261Z,11.80
2022-08-17T00:01:18.535Z,11.80
2022-08-17T00:02:25.274Z,11.70
2022-08-17T00:03:18.435Z,11.90
2022-08-17T00:04:17.428Z,11.70
2022-08-17T00:05:17.415Z,11.90
2022-08-17T00:06:17.414Z,12.10
2022-08-17T00:07:17.394Z,11.90
2022-08-17T00:08:17.381Z,12.00
2022-08-17T00:09:18.933Z,12.00
2022-08-17T00:10:17.362Z,12.10
2022-08-17T00:11:17.364Z,11.90
2022-08-17T00:12:40.799Z,12.20
2022-08-17T00:13:18.344Z,12.00
2022-08-17T00:14:17.315Z,12.20
2022-08-17T00:15:17.308Z,12.10
2022-08-17T00:16:17.308Z,11.90
2022-08-17T00:17:17.287Z,12.20
2022-08-17T00:18:58.345Z,12.00
2022-08-17T00:19:18.264Z,12.20
2022-08-17T00:20:17.253Z,11.90
2022-08-17T00:21:17.255Z,12.10
2022-08-17T00:22:35.242Z,12.10
2022-08-17T00:23:18.221Z,12.10
2022-08-17T00:24:17.208Z,12.10
2022-08-17T00:25:17.201Z,12.00
2022-08-17T00:26:34.631Z,12.10
2022-08-17T00:27:18.181Z,11.90
2022-08-17T00:28:17.163Z,12.10
2022-08-17T00:29:19.764Z,12.20
2022-08-17T00:30:17.141Z,11.90
2022-08-17T00:31:17.143Z,12.00
2022-08-17T00:33:14.308Z,12.20
2022-08-17T00:33:18.110Z,12.00
2022-08-17T00:34:17.101Z,12.10
2022-08-17T00:35:17.092Z,12.30
2022-08-17T00:36:17.087Z,12.10
2022-08-17T00:37:17.076Z,12.00
2022-08-17T00:38:17.056Z,12.00
2022-08-17T00:39:17.047Z,12.10
2022-08-17T00:40:17.035Z,12.30
2022-08-17T00:41:17.036Z,12.10
2022-08-17T00:42:17.013Z,12.20
2022-08-17T00:43:17.021Z,12.20
2022-08-17T00:44:16.992Z,12.00
2022-08-17T00:45:16.984Z,12.10
2022-08-17T00:46:16.972Z,12.30
2022-08-17T00:47:16.971Z,12.00
2022-08-17T00:48:27.203Z,12.20
2022-08-17T00:49:17.936Z,12.10
2022-08-17T00:50:16.931Z,12.10
2022-08-17T00:51:16.923Z,12.20
2022-08-17T00:52:16.914Z,12.10
2022-08-17T00:53:16.896Z,12.10
2022-08-17T00:54:16.884Z,12.00
2022-08-17T00:55:16.873Z,12.10
2022-08-17T00:56:16.868Z,12.10
2022-08-17T00:57:16.865Z,12.10
2022-08-17T00:58:16.840Z,12.10
2022-08-17T00:59:17.831Z,12.30
2022-08-17T01:00:16.824Z,12.10
2022-08-17T01:01:21.334Z,12.10
2022-08-17T01:02:17.810Z,12.00
2022-08-17T01:03:16.790Z,11.90
2022-08-17T01:04:16.779Z,12.00
2022-08-17T01:05:17.195Z,11.90
2022-08-17T01:06:16.758Z,12.20
2022-08-17T01:07:16.759Z,12.00
2022-08-17T01:08:16.735Z,12.10
2022-08-17T01:09:16.728Z,12.00
2022-08-17T01:10:59.041Z,12.30
2022-08-17T01:11:17.715Z,12.10
2022-08-17T01:12:16.691Z,12.10
2022-08-17T01:13:16.686Z,12.20
2022-08-17T01:14:16.670Z,12.30
2022-08-17T01:15:16.660Z,12.20
2022-08-17T01:16:16.676Z,12.20
2022-08-17T01:17:16.641Z,12.20
2022-08-17T01:18:16.629Z,12.30
2022-08-17T01:19:16.647Z,12.20
2022-08-17T01:20:16.604Z,12.00
2022-08-17T01:21:16.612Z,12.10
2022-08-17T01:22:16.584Z,12.20
2022-08-17T01:23:20.415Z,12.30
2022-08-17T01:24:16.562Z,12.10
2022-08-17T01:25:16.555Z,12.00
2022-08-17T01:26:16.563Z,12.00
2022-08-17T01:27:16.535Z,12.20
2022-08-17T01:28:33.440Z,12.40
2022-08-17T01:29:17.509Z,12.30
2022-08-17T01:30:56.538Z,12.30
2022-08-17T01:31:17.523Z,12.30
2022-08-17T01:32:16.476Z,12.30
2022-08-17T01:33:16.466Z,12.30
2022-08-17T01:34:16.456Z,12.20
2022-08-17T01:35:16.445Z,12.20
2022-08-17T01:36:16.433Z,12.20
2022-08-17T01:37:16.438Z,12.20
2022-08-17T01:38:16.412Z,12.40
2022-08-17T01:39:17.400Z,12.00
2022-08-17T01:40:16.392Z,12.20
2022-08-17T01:41:16.428Z,12.10
2022-08-17T01:42:16.378Z,12.20
2022-08-17T01:43:16.366Z,12.10
2022-08-17T01:44:16.346Z,12.00
2022-08-17T01:45:16.338Z,12.10
2022-08-17T01:46:16.327Z,12.00
2022-08-17T01:47:16.324Z,12.00
2022-08-17T01:48:16.303Z,11.90
2022-08-17T01:49:16.300Z,12.20
2022-08-17T01:50:16.280Z,12.30
2022-08-17T01:51:16.282Z,12.30
2022-08-17T01:52:16.269Z,12.40
2022-08-17T01:53:16.249Z,12.10
2022-08-17T01:54:16.239Z,12.20
2022-08-17T01:55:16.237Z,12.20
2022-08-17T01:56:16.228Z,12.00
2022-08-17T01:57:16.207Z,12.20
2022-08-17T01:58:16.194Z,12.10
2022-08-17T01:59:16.185Z,12.30
2022-08-17T02:00:16.174Z,12.20
2022-08-17T02:01:16.213Z,12.20
2022-08-17T02:02:30.934Z,12.30
2022-08-17T02:03:17.145Z,12.40
2022-08-17T02:04:16.133Z,12.30
2022-08-17T02:05:16.127Z,12.20
2022-08-17T02:06:26.922Z,12.10
2022-08-17T02:07:17.099Z,12.20
2022-08-17T02:08:20.056Z,12.40
2022-08-17T02:09:16.728Z,12.50
2022-08-17T02:10:20.034Z,12.40
2022-08-17T02:11:16.074Z,12.30
2022-08-17T02:12:37.717Z,12.20
2022-08-17T02:13:17.035Z,12.00
2022-08-17T02:14:16.027Z,12.30
2022-08-17T02:15:16.015Z,12.30
2022-08-17T02:16:16.016Z,12.20
2022-08-17T02:17:15.994Z,12.80
2022-08-17T02:18:15.980Z,12.20
2022-08-17T02:19:16.046Z,12.20
2022-08-17T02:20:15.963Z,12.60
2022-08-17T02:21:16.957Z,12.30
2022-08-17T02:22:15.939Z,12.60
2022-08-17T02:23:15.927Z,12.70
2022-08-17T02:24:15.917Z,13.30
2022-08-17T02:25:15.912Z,14.50
2022-08-17T02:26:25.445Z,13.20
2022-08-17T02:27:16.885Z,12.60
2022-08-17T02:28:15.872Z,12.60
2022-08-17T02:29:15.874Z,12.50
2022-08-17T02:30:59.531Z,12.40
2022-08-17T02:31:16.858Z,12.50
2022-08-17T02:32:15.832Z,12.60
2022-08-17T02:33:16.822Z,12.30
2022-08-17T02:34:15.849Z,12.50
2022-08-17T02:35:15.801Z,13.40
2022-08-17T02:36:15.805Z,12.30
2022-08-17T02:37:15.779Z,12.10
2022-08-17T02:38:15.771Z,12.10
2022-08-17T02:39:15.760Z,12.10
2022-08-17T02:40:15.915Z,12.10
2022-08-17T02:41:16.748Z,12.70
2022-08-17T02:42:15.727Z,12.70
2022-08-17T02:43:15.716Z,12.40
2022-08-17T02:44:35.362Z,12.90
2022-08-17T02:45:16.693Z,12.20
2022-08-17T02:46:15.699Z,12.20
2022-08-17T02:47:15.676Z,12.60
2022-08-17T02:48:15.671Z,12.30
2022-08-17T02:49:16.652Z,12.40
2022-08-17T02:50:15.648Z,12.30
2022-08-17T02:51:15.647Z,12.20
2022-08-17T02:52:15.620Z,12.00
2022-08-17T02:53:15.610Z,12.50
2022-08-17T02:54:40.688Z,12.80
2022-08-17T02:55:16.589Z,13.10
2022-08-17T02:56:15.592Z,13.30
2022-08-17T02:57:15.570Z,12.50
2022-08-17T02:58:15.555Z,12.70
2022-08-17T02:59:16.550Z,12.90
2022-08-17T03:00:15.540Z,12.50
2022-08-17T03:01:15.577Z,12.50
2022-08-17T03:02:15.515Z,12.40
2022-08-17T03:03:15.508Z,12.60
2022-08-17T03:04:15.493Z,14.70
2022-08-17T03:05:15.486Z,12.40
2022-08-17T03:06:15.499Z,12.20
2022-08-17T03:07:15.463Z,12.80
2022-08-17T03:08:15.455Z,12.20
2022-08-17T03:09:15.443Z,12.70
2022-08-17T03:10:15.435Z,12.30
2022-08-17T03:11:15.436Z,12.00
2022-08-17T03:12:15.412Z,12.80
2022-08-17T03:13:15.402Z,12.50
2022-08-17T03:14:15.390Z,12.20
2022-08-17T03:15:15.383Z,13.80
2022-08-17T03:16:15.377Z,13.40
2022-08-17T03:17:16.994Z,12.20
2022-08-17T03:18:24.363Z,12.00
2022-08-17T03:19:16.337Z,12.20
2022-08-17T03:20:15.330Z,12.20
2022-08-17T03:21:15.333Z,12.50
2022-08-17T03:22:36.483Z,12.30
2022-08-17T03:23:16.292Z,12.30
2022-08-17T03:24:15.283Z,12.30
2022-08-17T03:25:15.343Z,14.80
2022-08-17T03:26:16.305Z,12.30
2022-08-17T03:27:15.267Z,12.30
2022-08-17T03:28:15.242Z,12.50
2022-08-17T03:29:15.232Z,12.90
2022-08-17T03:30:15.221Z,12.80
2022-08-17T03:31:15.298Z,13.10
2022-08-17T03:32:15.199Z,12.30
2022-08-17T03:33:15.189Z,12.80
2022-08-17T03:34:15.177Z,14.00
2022-08-17T03:35:15.173Z,12.30
2022-08-17T03:36:15.170Z,12.30
2022-08-17T03:37:15.177Z,13.30
2022-08-17T03:38:15.991Z,12.40
2022-08-17T03:39:15.128Z,13.30
2022-08-17T03:40:15.220Z,12.60
2022-08-17T03:41:16.114Z,12.80
2022-08-17T03:42:31.327Z,13.10
2022-08-17T03:43:16.090Z,12.60
2022-08-17T03:44:15.075Z,12.50
2022-08-17T03:45:15.602Z,13.60
2022-08-17T03:46:27.752Z,13.20
2022-08-17T03:47:16.039Z,12.30
2022-08-17T03:48:15.064Z,12.30
2022-08-17T03:49:15.048Z,12.40
2022-08-17T03:50:15.009Z,13.80
2022-08-17T03:51:15.009Z,12.60
2022-08-17T03:52:14.989Z,12.70
2022-08-17T03:53:14.979Z,12.90
2022-08-17T03:54:14.966Z,12.40
2022-08-17T03:55:14.956Z,12.80
2022-08-17T03:56:14.958Z,12.80
2022-08-17T03:57:14.943Z,12.90
2022-08-17T03:58:14.927Z,12.50
2022-08-17T03:59:20.821Z,12.50
2022-08-17T04:00:15.904Z,12.50
2022-08-17T04:01:14.957Z,13.10
2022-08-17T04:02:14.887Z,12.30
2022-08-17T04:03:14.873Z,12.50
2022-08-17T04:04:14.860Z,13.90
2022-08-17T04:05:14.854Z,12.60
2022-08-17T04:06:14.856Z,12.60
2022-08-17T04:07:14.830Z,13.40
2022-08-17T04:08:14.831Z,12.80
2022-08-17T04:09:14.811Z,12.40
2022-08-17T04:10:14.799Z,13.30
2022-08-17T04:11:14.799Z,12.40
2022-08-17T04:12:14.780Z,12.50
2022-08-17T04:13:14.772Z,12.10
2022-08-17T04:14:14.756Z,13.80
2022-08-17T04:15:14.748Z,12.90
2022-08-17T04:16:14.745Z,12.50
2022-08-17T04:17:14.727Z,12.90
2022-08-17T04:18:14.716Z,12.30
2022-08-17T04:19:14.715Z,13.30
2022-08-17T04:20:14.694Z,12.90
2022-08-17T04:21:14.694Z,13.60
2022-08-17T04:22:30.558Z,12.90
2022-08-17T04:23:15.662Z,12.30
2022-08-17T04:24:14.652Z,13.00
2022-08-17T04:25:14.639Z,13.70
2022-08-17T04:26:53.196Z,12.40
2022-08-17T04:27:15.669Z,12.50
2022-08-17T04:28:16.223Z,12.40
2022-08-17T04:29:14.598Z,12.70
2022-08-17T04:30:14.597Z,13.10
2022-08-17T04:31:14.585Z,12.80
2022-08-17T04:32:14.567Z,13.30
2022-08-17T04:33:14.801Z,13.40
2022-08-17T04:34:14.551Z,13.20
2022-08-17T04:35:15.533Z,12.90
2022-08-17T04:36:14.537Z,12.80
2022-08-17T04:37:14.513Z,13.30
2022-08-17T04:38:14.503Z,12.80
2022-08-17T04:39:14.491Z,12.70
2022-08-17T04:40:14.579Z,13.10
2022-08-17T04:41:14.479Z,13.40
2022-08-17T04:42:14.462Z,13.30
2022-08-17T04:43:14.447Z,12.20
2022-08-17T04:44:30.417Z,12.50
2022-08-17T04:45:15.429Z,13.70
2022-08-17T04:46:14.429Z,12.90
2022-08-17T04:47:14.407Z,12.80
2022-08-17T04:48:14.403Z,12.80
2022-08-17T04:49:14.385Z,13.80
2022-08-17T04:50:14.380Z,12.70
2022-08-17T04:51:14.382Z,12.70
2022-08-17T04:52:29.705Z,12.80
2022-08-17T04:53:15.345Z,12.40
2022-08-17T04:54:14.341Z,12.90
2022-08-17T04:55:14.320Z,13.30
2022-08-17T04:56:17.029Z,12.40
2022-08-17T04:57:14.300Z,13.00
2022-08-17T04:58:14.292Z,13.00
2022-08-17T04:59:14.277Z,12.50
2022-08-17T05:00:14.278Z,13.60
2022-08-17T05:01:14.366Z,12.70
2022-08-17T05:02:14.246Z,13.00
2022-08-17T05:03:14.237Z,13.50
2022-08-17T05:04:32.922Z,12.80
2022-08-17T05:05:15.226Z,12.60
2022-08-17T05:06:14.203Z,13.60
2022-08-17T05:07:14.190Z,12.60
2022-08-17T05:08:14.180Z,12.50
2022-08-17T05:09:14.169Z,12.60
2022-08-17T05:10:14.166Z,12.40
2022-08-17T05:11:14.157Z,12.20
2022-08-17T05:12:14.137Z,12.60
2022-08-17T05:13:14.128Z,12.70
2022-08-17T05:14:14.116Z,12.50
2022-08-17T05:15:14.108Z,12.30
2022-08-17T05:16:14.118Z,13.00
2022-08-17T05:17:14.081Z,14.00
2022-08-17T05:18:14.076Z,12.60
2022-08-17T05:19:14.077Z,12.20
2022-08-17T05:20:14.060Z,12.60
2022-08-17T05:21:14.048Z,13.10
2022-08-17T05:22:14.036Z,12.30
2022-08-17T05:23:14.019Z,13.20
2022-08-17T05:24:38.180Z,12.80
2022-08-17T05:25:15.000Z,12.60
2022-08-17T05:26:25.432Z,12.60
2022-08-17T05:27:18.727Z,12.30
2022-08-17T05:28:13.960Z,12.30
2022-08-17T05:29:13.953Z,13.70
2022-08-17T05:30:13.948Z,13.00
2022-08-17T05:31:13.924Z,11.90
2022-08-17T05:32:38.357Z,12.50
2022-08-17T05:33:14.906Z,12.60
2022-08-17T05:34:13.894Z,13.30
2022-08-17T05:35:13.889Z,12.30
2022-08-17T05:36:41.808Z,12.00
2022-08-17T05:37:14.859Z,13.20
2022-08-17T05:38:13.855Z,12.90
2022-08-17T05:39:16.151Z,13.10
2022-08-17T05:40:13.848Z,13.00
2022-08-17T05:41:13.815Z,12.30
2022-08-17T05:42:13.805Z,13.00
2022-08-17T05:43:13.795Z,12.30
2022-08-17T05:44:13.785Z,12.60
2022-08-17T05:45:13.782Z,12.20
2022-08-17T05:46:13.761Z,12.60
2022-08-17T05:47:13.748Z,13.00
2022-08-17T05:48:13.738Z,12.00
2022-08-17T05:49:13.728Z,11.80
2022-08-17T05:50:13.727Z,12.50
2022-08-17T05:51:14.708Z,13.60
2022-08-17T05:52:13.697Z,11.90
2022-08-17T05:53:14.686Z,12.20
2022-08-17T05:54:13.680Z,12.60
2022-08-17T05:55:13.674Z,12.30
2022-08-17T05:56:29.831Z,11.80
2022-08-17T05:57:14.638Z,12.60
2022-08-17T05:58:13.634Z,11.80
2022-08-17T05:59:13.636Z,12.00
2022-08-17T06:00:13.619Z,11.90
2022-08-17T06:01:13.677Z,12.70
2022-08-17T06:02:13.621Z,12.70
2022-08-17T06:03:13.573Z,11.70
2022-08-17T06:04:13.565Z,12.10
2022-08-17T06:05:13.566Z,13.00
2022-08-17T06:06:13.543Z,11.50
2022-08-17T06:07:13.577Z,12.30
2022-08-17T06:08:13.520Z,12.30
2022-08-17T06:09:13.510Z,11.60
2022-08-17T06:10:13.510Z,12.60
2022-08-17T06:11:13.486Z,12.30
2022-08-17T06:12:14.484Z,12.10
2022-08-17T06:13:14.465Z,11.70
2022-08-17T06:14:13.468Z,12.50
2022-08-17T06:15:13.453Z,13.40
2022-08-17T06:16:25.989Z,11.80
2022-08-17T06:17:14.420Z,12.00
2022-08-17T06:18:18.528Z,12.00
2022-08-17T06:19:14.401Z,13.10
2022-08-17T06:20:13.400Z,12.90
2022-08-17T06:21:13.386Z,12.00
2022-08-17T06:22:13.385Z,12.30
2022-08-17T06:23:13.357Z,12.70
2022-08-17T06:24:13.346Z,12.50
2022-08-17T06:25:13.348Z,12.30
2022-08-17T06:26:13.326Z,12.60
2022-08-17T06:27:13.315Z,12.60
2022-08-17T06:28:13.734Z,12.40
2022-08-17T06:29:18.901Z,12.00
2022-08-17T06:30:14.314Z,13.10
2022-08-17T06:31:13.269Z,11.80
2022-08-17T06:32:13.258Z,12.20
2022-08-17T06:33:13.258Z,12.20
2022-08-17T06:34:13.249Z,11.70
2022-08-17T06:35:13.263Z,12.90
2022-08-17T06:36:15.792Z,12.90
2022-08-17T06:37:13.203Z,12.10
2022-08-17T06:38:37.916Z,12.00
2022-08-17T06:39:14.192Z,12.80
2022-08-17T06:40:13.234Z,13.20
2022-08-17T06:41:13.171Z,12.00
2022-08-17T06:42:54.737Z,12.10
2022-08-17T06:43:14.609Z,13.30
2022-08-17T06:44:13.131Z,11.90
2022-08-17T06:45:14.130Z,11.90
2022-08-17T06:46:13.108Z,12.30
2022-08-17T06:47:13.096Z,11.90
2022-08-17T06:48:13.090Z,11.50
2022-08-17T06:49:13.093Z,12.20
2022-08-17T06:50:13.078Z,11.30
2022-08-17T06:51:13.051Z,11.40
2022-08-17T06:52:13.045Z,11.90
2022-08-17T06:53:14.029Z,10.50
2022-08-17T06:54:13.021Z,11.50
2022-08-17T06:55:17.806Z,11.90
2022-08-17T06:56:13.999Z,10.60
2022-08-17T06:57:12.988Z,12.60
2022-08-17T06:58:16.394Z,11.70
2022-08-17T06:59:12.969Z,11.00
2022-08-17T07:00:12.969Z,12.10
2022-08-17T07:01:13.090Z,10.80
2022-08-17T07:02:12.942Z,11.30
2022-08-17T07:03:12.928Z,11.70
2022-08-17T07:04:12.917Z,10.80
2022-08-17T07:05:12.912Z,10.50
2022-08-17T07:06:12.894Z,12.50
2022-08-17T07:07:12.881Z,11.00
2022-08-17T07:08:12.872Z,10.60
2022-08-17T07:09:12.860Z,11.70
2022-08-17T07:10:12.861Z,11.60
2022-08-17T07:11:12.839Z,10.30
2022-08-17T07:12:12.834Z,10.80
2022-08-17T07:13:12.818Z,10.70
2022-08-17T07:14:16.661Z,10.80
2022-08-17T07:15:12.799Z,10.20
2022-08-17T07:16:12.794Z,10.60
2022-08-17T07:17:12.777Z,11.50
2022-08-17T07:18:12.767Z,9.90
2022-08-17T07:19:12.765Z,10.10
2022-08-17T07:20:12.747Z,11.60
2022-08-17T07:21:17.577Z,10.20
2022-08-17T07:22:13.728Z,10.10
2022-08-17T07:23:12.714Z,10.20
2022-08-17T07:24:29.547Z,10.70
2022-08-17T07:25:13.698Z,10.20
2022-08-17T07:26:12.685Z,10.80
2022-08-17T07:27:12.689Z,11.20
2022-08-17T07:28:12.709Z,10.60
2022-08-17T07:29:12.671Z,10.40
2022-08-17T07:30:12.645Z,11.00
2022-08-17T07:31:12.655Z,10.20
2022-08-17T07:32:12.624Z,9.90
2022-08-17T07:33:13.483Z,10.00
2022-08-17T07:34:12.607Z,11.10
2022-08-17T07:35:12.604Z,11.70
2022-08-17T07:36:12.587Z,10.80
2022-08-17T07:37:12.573Z,10.40
2022-08-17T07:38:25.457Z,10.10
2022-08-17T07:39:13.553Z,10.90
2022-08-17T07:40:16.155Z,11.30
2022-08-17T07:41:12.539Z,10.70
2022-08-17T07:42:12.528Z,10.50
2022-08-17T07:43:15.649Z,10.40
2022-08-17T07:44:13.504Z,10.40
2022-08-17T07:45:12.513Z,10.90
2022-08-17T07:46:12.487Z,10.60
2022-08-17T07:47:12.479Z,10.90
2022-08-17T07:48:12.476Z,10.90
2022-08-17T07:49:12.453Z,10.70
2022-08-17T07:50:12.458Z,11.40
2022-08-17T07:51:12.447Z,10.60
2022-08-17T07:52:13.530Z,11.00
2022-08-17T07:53:13.416Z,10.50
2022-08-17T07:54:14.786Z,10.60
2022-08-17T07:55:12.398Z,11.20
2022-08-17T07:56:12.390Z,10.70
2022-08-17T07:57:12.377Z,10.60
2022-08-17T07:58:12.372Z,10.20
2022-08-17T07:59:12.372Z,10.20
2022-08-17T08:00:12.805Z,11.20
2022-08-17T08:01:12.342Z,10.80
2022-08-17T08:02:12.417Z,10.30
2022-08-17T08:03:12.323Z,10.40
2022-08-17T08:04:16.360Z,11.10
2022-08-17T08:05:13.299Z,10.70
2022-08-17T08:06:12.293Z,10.20
2022-08-17T08:07:12.282Z,10.30
2022-08-17T08:08:12.280Z,10.20
2022-08-17T08:09:12.281Z,10.90
2022-08-17T08:10:12.265Z,10.50
2022-08-17T08:11:12.247Z,10.20
2022-08-17T08:12:12.239Z,10.10
2022-08-17T08:13:14.495Z,10.40
2022-08-17T08:14:12.223Z,11.80
2022-08-17T08:15:12.204Z,10.10
2022-08-17T08:16:12.203Z,9.80
2022-08-17T08:17:12.185Z,10.40
2022-08-17T08:18:12.177Z,10.20
2022-08-17T08:19:12.177Z,10.40
2022-08-17T08:20:42.425Z,10.80
2022-08-17T08:21:13.145Z,10.20
2022-08-17T08:22:12.138Z,11.00
2022-08-17T08:23:12.139Z,10.10
2022-08-17T08:24:12.137Z,10.40
2022-08-17T08:25:12.109Z,11.80
2022-08-17T08:26:16.459Z,10.20
2022-08-17T08:27:13.088Z,10.20
2022-08-17T08:28:12.084Z,10.50
2022-08-17T08:29:12.080Z,10.60
2022-08-17T08:30:12.066Z,10.30
2022-08-17T08:31:12.062Z,10.70
2022-08-17T08:32:12.043Z,10.40
2022-08-17T08:33:12.038Z,10.50
2022-08-17T08:34:58.735Z,10.50
2022-08-17T08:35:13.009Z,11.00
2022-08-17T08:36:12.005Z,10.80
2022-08-17T08:37:17.135Z,10.80
2022-08-17T08:38:11.994Z,10.60
2022-08-17T08:39:11.997Z,11.20
2022-08-17T08:40:12.052Z,11.60
2022-08-17T08:41:11.970Z,11.10
2022-08-17T08:42:11.954Z,10.80
2022-08-17T08:43:11.939Z,11.20
2022-08-17T08:44:11.940Z,11.40
2022-08-17T08:45:11.925Z,11.50
2022-08-17T08:46:11.908Z,11.20
2022-08-17T08:47:11.902Z,10.70
2022-08-17T08:48:12.815Z,11.30
2022-08-17T08:49:12.895Z,11.40
2022-08-17T08:50:37.728Z,11.40
2022-08-17T08:51:12.863Z,11.40
2022-08-17T08:52:11.855Z,11.10
2022-08-17T08:53:11.847Z,12.10
2022-08-17T08:54:11.854Z,11.80
2022-08-17T08:55:11.836Z,10.80
2022-08-17T08:56:11.818Z,11.30
2022-08-17T08:57:24.314Z,11.10
2022-08-17T08:58:31.958Z,11.30
2022-08-17T08:59:12.791Z,11.30
2022-08-17T09:00:11.786Z,11.10
2022-08-17T09:01:17.094Z,11.20
2022-08-17T09:02:12.765Z,11.10
2022-08-17T09:03:11.764Z,10.70
2022-08-17T09:04:24.074Z,12.60
2022-08-17T09:05:14.610Z,11.70
2022-08-17T09:06:32.623Z,10.70
2022-08-17T09:07:12.736Z,11.40
2022-08-17T09:08:11.743Z,11.60
2022-08-17T09:09:11.705Z,11.40
2022-08-17T09:10:11.690Z,11.40
2022-08-17T09:11:11.682Z,10.80
2022-08-17T09:12:11.673Z,11.90
2022-08-17T09:13:11.699Z,12.10
2022-08-17T09:14:21.372Z,10.60
2022-08-17T09:15:13.185Z,10.60
2022-08-17T09:16:11.636Z,12.00
2022-08-17T09:17:11.666Z,11.20
2022-08-17T09:19:12.611Z,10.50
2022-08-17T09:20:11.600Z,11.20
2022-08-17T09:21:12.593Z,10.90
2022-08-17T09:22:11.583Z,10.50
2022-08-17T09:23:11.583Z,10.80
2022-08-17T09:24:11.564Z,10.40
2022-08-17T09:25:11.559Z,10.90
2022-08-17T09:26:11.545Z,10.50
2022-08-17T09:27:11.541Z,11.10
2022-08-17T09:28:11.538Z,10.10
2022-08-17T09:29:11.521Z,10.90
2022-08-17T09:30:11.510Z,11.20
2022-08-17T09:31:11.501Z,10.80
2022-08-17T09:32:11.493Z,10.30
2022-08-17T09:33:11.496Z,10.30
2022-08-17T09:34:11.486Z,10.50
2022-08-17T09:35:11.486Z,10.60
2022-08-17T09:36:11.490Z,11.20
2022-08-17T09:37:11.448Z,11.50
2022-08-17T09:38:11.473Z,10.20
2022-08-17T09:39:11.431Z,10.90
2022-08-17T09:40:11.496Z,11.50
2022-08-17T09:41:11.426Z,10.50
2022-08-17T09:42:11.402Z,11.20
2022-08-17T09:43:11.406Z,10.70
2022-08-17T09:44:22.799Z,10.30
2022-08-17T09:45:12.374Z,10.70
2022-08-17T09:46:11.365Z,11.00
2022-08-17T09:47:11.359Z,10.20
2022-08-17T09:48:11.404Z,10.70
2022-08-17T09:49:11.339Z,11.50
2022-08-17T09:50:11.328Z,10.30
2022-08-17T09:51:11.323Z,10.60
2022-08-17T09:52:11.315Z,10.40
2022-08-17T09:53:11.314Z,11.20
2022-08-17T09:54:37.544Z,10.60
2022-08-17T09:55:12.302Z,10.60
2022-08-17T09:56:11.277Z,11.60
2022-08-17T09:57:29.095Z,11.60
2022-08-17T09:58:12.272Z,11.50
2022-08-17T09:59:11.249Z,11.10
2022-08-17T10:00:11.246Z,11.80
2022-08-17T10:01:11.284Z,11.80
2022-08-17T10:02:13.525Z,11.40
2022-08-17T10:03:11.213Z,11.30
2022-08-17T10:04:11.203Z,10.70
2022-08-17T10:05:11.196Z,11.90
2022-08-17T10:06:11.183Z,11.50
2022-08-17T10:07:11.186Z,11.30
2022-08-17T10:08:11.165Z,10.70
2022-08-17T10:09:11.158Z,12.10
2022-08-17T10:10:14.228Z,12.30
2022-08-17T10:11:11.138Z,10.90
2022-08-17T10:12:11.137Z,11.20
2022-08-17T10:13:11.122Z,11.80
2022-08-17T10:14:24.060Z,10.90
2022-08-17T10:15:12.102Z,11.90
2022-08-17T10:16:11.091Z,10.90
2022-08-17T10:17:11.105Z,11.00
2022-08-17T10:18:11.073Z,10.80
2022-08-17T10:19:11.065Z,11.20
2022-08-17T10:20:11.060Z,12.30
2022-08-17T10:21:11.048Z,10.50
2022-08-17T10:22:32.791Z,10.80
2022-08-17T10:23:12.073Z,11.50
2022-08-17T10:24:11.017Z,11.50
2022-08-17T10:25:23.227Z,11.30
2022-08-17T10:26:11.997Z,10.90
2022-08-17T10:27:10.999Z,11.70
2022-08-17T10:28:19.729Z,11.00
2022-08-17T10:29:11.987Z,11.20
2022-08-17T10:30:10.965Z,11.30
2022-08-17T10:31:33.577Z,10.90
2022-08-17T10:32:11.969Z,10.90
2022-08-17T10:33:10.936Z,10.60
2022-08-17T10:34:10.926Z,11.80
2022-08-17T10:35:10.923Z,11.30
2022-08-17T10:36:11.007Z,11.00
2022-08-17T10:37:10.910Z,10.70
2022-08-17T10:38:10.891Z,10.40
2022-08-17T10:39:10.880Z,11.10
2022-08-17T10:40:10.920Z,13.00
2022-08-17T10:41:10.863Z,11.20
2022-08-17T10:42:10.881Z,11.20
2022-08-17T10:43:10.843Z,11.70
2022-08-17T10:44:39.851Z,11.80
2022-08-17T10:45:11.824Z,11.20
2022-08-17T10:46:30.935Z,11.10
2022-08-17T10:47:11.858Z,12.00
2022-08-17T10:48:11.079Z,11.50
2022-08-17T10:49:10.784Z,11.30
2022-08-17T10:50:10.778Z,12.00
2022-08-17T10:51:10.768Z,12.10
2022-08-17T10:52:10.763Z,11.20
2022-08-17T10:53:10.764Z,11.60
2022-08-17T10:54:10.736Z,13.00
2022-08-17T10:55:10.728Z,12.40
2022-08-17T10:56:10.718Z,10.90
2022-08-17T10:57:10.871Z,11.90
2022-08-17T10:58:10.727Z,11.60
2022-08-17T10:59:10.691Z,11.50
2022-08-17T11:00:10.674Z,11.30
2022-08-17T11:01:10.761Z,11.50
2022-08-17T11:02:10.668Z,10.90
2022-08-17T11:03:10.645Z,11.70
2022-08-17T11:04:10.657Z,11.60
2022-08-17T11:05:10.625Z,11.50
2022-08-17T11:06:10.615Z,11.20
2022-08-17T11:07:10.615Z,11.20
2022-08-17T11:08:10.594Z,10.80
2022-08-17T11:09:10.611Z,10.70
2022-08-17T11:10:10.574Z,11.60
2022-08-17T11:11:10.564Z,11.20
2022-08-17T11:12:10.566Z,10.80
2022-08-17T11:13:10.551Z,10.70
2022-08-17T11:14:10.537Z,10.80
2022-08-17T11:15:10.524Z,11.80
2022-08-17T11:16:10.514Z,10.50
2022-08-17T11:17:10.514Z,10.80
2022-08-17T11:18:10.491Z,11.40
2022-08-17T11:19:10.485Z,10.70
2022-08-17T11:20:10.472Z,10.50
2022-08-17T11:21:10.463Z,10.80
2022-08-17T11:22:10.464Z,11.20
2022-08-17T11:23:10.445Z,10.80
2022-08-17T11:24:10.431Z,11.80
2022-08-17T11:25:10.431Z,10.70
2022-08-17T11:26:10.415Z,10.70
2022-08-17T11:27:11.994Z,11.20
2022-08-17T11:28:10.392Z,10.50
2022-08-17T11:29:10.382Z,11.00
2022-08-17T11:30:10.452Z,12.70
2022-08-17T11:31:10.363Z,10.60
2022-08-17T11:32:11.234Z,10.90
2022-08-17T11:33:10.343Z,10.80
2022-08-17T11:34:10.330Z,11.10
2022-08-17T11:35:10.326Z,11.80
2022-08-17T11:36:10.309Z,10.60
2022-08-17T11:37:10.317Z,11.10
2022-08-17T11:38:14.058Z,11.30
2022-08-17T11:39:11.279Z,11.10
2022-08-17T11:40:10.400Z,11.00
2022-08-17T11:41:10.261Z,10.90
2022-08-17T11:42:10.256Z,10.60
2022-08-17T11:43:10.237Z,11.10
2022-08-17T11:44:10.229Z,11.00
2022-08-17T11:45:10.218Z,11.10
2022-08-17T11:46:10.207Z,10.80
2022-08-17T11:47:10.224Z,10.80
2022-08-17T11:48:27.282Z,10.30
2022-08-17T11:49:11.175Z,10.70
2022-08-17T11:50:10.169Z,10.80
2022-08-17T11:51:10.154Z,10.90
2022-08-17T11:52:10.171Z,10.60
2022-08-17T11:53:10.134Z,10.50
2022-08-17T11:54:39.359Z,11.50
2022-08-17T11:55:34.088Z,10.80
2022-08-17T11:56:11.101Z,12.50
2022-08-17T11:57:10.097Z,11.00
2022-08-17T11:58:10.103Z,10.50
2022-08-17T11:59:10.084Z,11.30
2022-08-17T12:00:10.061Z,11.40
2022-08-17T12:01:10.052Z,10.80
2022-08-17T12:02:10.098Z,11.20
2022-08-17T12:03:10.153Z,11.90
2022-08-17T12:04:10.102Z,12.40
2022-08-17T12:05:12.150Z,10.90
2022-08-17T12:06:09.996Z,11.00
2022-08-17T12:07:10.006Z,12.00
2022-08-17T12:08:09.975Z,11.90
2022-08-17T12:09:09.969Z,11.20
2022-08-17T12:10:09.956Z,12.20
2022-08-17T12:11:09.946Z,12.30
2022-08-17T12:12:12.571Z,11.80
2022-08-17T12:13:09.925Z,11.50
2022-08-17T12:14:13.725Z,11.50
2022-08-17T12:15:12.118Z,11.00
2022-08-17T12:16:10.020Z,12.10
2022-08-17T12:17:09.893Z,11.00
2022-08-17T12:18:09.871Z,11.00
2022-08-17T12:19:09.863Z,10.70
2022-08-17T12:20:09.851Z,11.30
2022-08-17T12:21:09.841Z,10.90
2022-08-17T12:22:09.958Z,11.50
2022-08-17T12:23:09.829Z,11.60
2022-08-17T12:24:09.809Z,11.30
2022-08-17T12:25:09.830Z,11.60
2022-08-17T12:26:09.789Z,11.20
2022-08-17T12:27:09.794Z,11.20
2022-08-17T12:28:10.033Z,11.30
2022-08-17T12:29:09.782Z,11.10
2022-08-17T12:30:10.746Z,10.80
2022-08-17T12:31:09.784Z,11.60
2022-08-17T12:32:09.740Z,12.10
2022-08-17T12:33:09.761Z,10.90
2022-08-17T12:34:09.772Z,11.00
2022-08-17T12:35:09.697Z,12.40
2022-08-17T12:36:09.689Z,11.30
2022-08-17T12:37:09.694Z,11.10
2022-08-17T12:38:32.666Z,11.10
2022-08-17T12:39:14.302Z,11.30
2022-08-17T12:40:09.700Z,11.40
2022-08-17T12:41:09.636Z,11.70
2022-08-17T12:42:09.658Z,11.00
2022-08-17T12:43:09.616Z,11.30
2022-08-17T12:44:09.604Z,11.20
2022-08-17T12:45:09.596Z,11.80
2022-08-17T12:46:15.203Z,11.60
2022-08-17T12:47:10.587Z,11.30
2022-08-17T12:48:09.563Z,11.80
2022-08-17T12:49:09.554Z,11.20
2022-08-17T12:50:28.742Z,11.70
2022-08-17T12:51:10.532Z,11.40
2022-08-17T12:52:09.550Z,11.30
2022-08-17T12:53:09.512Z,11.10